createdAt,value
2019-03-05T00:01:49.585Z,1.60
2019-03-05T00:04:20.675Z,1.97
2019-03-05T00:06:52.080Z,2.00
2019-03-05T00:09:23.608Z,1.60
2019-03-05T00:11:54.993Z,1.70
2019-03-05T00:14:26.086Z,1.70
2019-03-05T00:16:57.320Z,1.30
2019-03-05T00:19:28.411Z,1.80
2019-03-05T00:21:59.882Z,1.60
2019-03-05T00:25:17.646Z,1.50
2019-03-05T00:27:59.805Z,1.30
2019-03-05T00:30:40.319Z,1.30
2019-03-05T00:33:21.771Z,1.30
2019-03-05T00:36:06.894Z,1.70
2019-03-05T00:39:34.205Z,1.37
2019-03-05T00:42:59.014Z,1.30
2019-03-05T00:46:13.861Z,1.60
2019-03-05T00:49:33.966Z,1.47
2019-03-05T00:52:40.340Z,1.63
2019-03-05T00:55:42.461Z,1.40
2019-03-05T00:58:33.306Z,1.50
2019-03-05T01:01:38.823Z,1.50
2019-03-05T01:04:44.964Z,1.43
2019-03-05T01:07:16.217Z,1.53
2019-03-05T01:09:48.530Z,1.70
2019-03-05T01:12:19.892Z,1.40
2019-03-05T01:14:54.337Z,2.00
2019-03-05T01:17:25.743Z,1.40
2019-03-05T01:19:57.257Z,1.43
2019-03-05T01:22:31.654Z,1.50
2019-03-05T01:25:03.188Z,1.53
2019-03-05T01:27:34.396Z,1.60
2019-03-05T01:30:06.623Z,1.37
2019-03-05T01:32:46.950Z,1.80
2019-03-05T01:35:31.763Z,1.50
2019-03-05T01:38:03.037Z,1.50
2019-03-05T01:40:38.035Z,1.50
2019-03-05T01:43:12.133Z,1.90
2019-03-05T01:45:43.502Z,1.40
2019-03-05T01:48:15.309Z,1.57
2019-03-05T01:50:46.972Z,1.80
2019-03-05T01:53:18.235Z,1.90
2019-03-05T01:55:49.881Z,2.10
2019-03-05T01:58:21.115Z,1.50
2019-03-05T02:00:52.455Z,2.03
2019-03-05T02:03:23.722Z,1.73
2019-03-05T02:05:55.099Z,1.87
2019-03-05T02:08:26.634Z,2.00
2019-03-05T02:10:58.175Z,1.63
2019-03-05T02:13:29.490Z,1.67
2019-03-05T02:16:01.108Z,2.00
2019-03-05T02:18:32.505Z,1.97
2019-03-05T02:21:04.008Z,1.83
2019-03-05T02:24:04.797Z,1.73
2019-03-05T02:26:56.949Z,1.70
2019-03-05T02:30:15.875Z,1.60
2019-03-05T02:33:12.470Z,1.80
2019-03-05T02:36:08.566Z,1.97
2019-03-05T02:39:32.477Z,1.93
2019-03-05T02:42:28.297Z,2.00
2019-03-05T02:45:31.722Z,1.63
2019-03-05T02:48:33.902Z,1.70
2019-03-05T02:51:39.432Z,1.40
2019-03-05T02:54:52.149Z,2.07
2019-03-05T02:57:23.580Z,1.80
2019-03-05T02:59:54.832Z,1.73
2019-03-05T03:02:50.060Z,1.90
2019-03-05T03:05:52.311Z,2.03
2019-03-05T03:08:23.967Z,1.90
2019-03-05T03:10:55.254Z,1.80
2019-03-05T03:13:26.972Z,1.60
2019-03-05T03:15:58.216Z,1.80
2019-03-05T03:18:29.719Z,1.87
2019-03-05T03:21:01.293Z,1.53
2019-03-05T03:23:32.935Z,1.50
2019-03-05T03:26:04.178Z,1.40
2019-03-05T03:28:35.971Z,1.70
2019-03-05T03:31:07.252Z,1.90
2019-03-05T03:33:38.710Z,2.03
2019-03-05T03:36:09.987Z,1.40
2019-03-05T03:38:41.544Z,2.00
2019-03-05T03:41:13.018Z,1.60
2019-03-05T03:43:44.394Z,1.60
2019-03-05T03:46:15.575Z,1.60
2019-03-05T03:48:46.963Z,1.60
2019-03-05T03:51:18.598Z,1.60
2019-03-05T03:53:50.099Z,1.83
2019-03-05T03:56:21.468Z,1.50
2019-03-05T03:58:53.141Z,1.40
2019-03-05T04:01:24.579Z,1.33
2019-03-05T04:03:55.989Z,1.40
2019-03-05T04:06:27.536Z,1.70
2019-03-05T04:09:00.555Z,1.90
2019-03-05T04:11:36.671Z,1.60
2019-03-05T04:14:10.852Z,1.90
2019-03-05T04:16:44.761Z,1.90
2019-03-05T04:19:19.865Z,1.60
2019-03-05T04:21:51.093Z,2.00
2019-03-05T04:24:23.088Z,1.97
2019-03-05T04:26:54.320Z,1.60
2019-03-05T04:29:25.821Z,2.00
2019-03-05T04:31:57.081Z,1.70
2019-03-05T04:34:28.743Z,1.70
2019-03-05T04:36:59.957Z,1.80
2019-03-05T04:39:31.259Z,1.93
2019-03-05T04:42:02.480Z,1.87
2019-03-05T04:44:43.136Z,1.70
2019-03-05T04:47:17.368Z,1.63
2019-03-05T04:50:22.946Z,1.70
2019-03-05T04:52:57.194Z,1.90
2019-03-05T04:55:28.873Z,1.83
2019-03-05T04:58:01.040Z,2.43
2019-03-05T05:00:32.422Z,2.07
2019-03-05T05:03:03.766Z,2.00
2019-03-05T05:05:35.202Z,1.90
2019-03-05T05:08:10.762Z,1.70
2019-03-05T05:10:42.224Z,2.00
2019-03-05T05:13:16.619Z,1.90
2019-03-05T05:15:49.487Z,1.97
2019-03-05T05:18:22.031Z,2.20
2019-03-05T05:20:53.623Z,1.80
2019-03-05T05:23:24.808Z,2.00
2019-03-05T05:25:58.632Z,2.03
2019-03-05T05:28:29.797Z,2.10
2019-03-05T05:31:01.203Z,2.23
2019-03-05T05:33:34.472Z,1.73
2019-03-05T05:36:06.051Z,2.30
2019-03-05T05:38:37.448Z,2.10
2019-03-05T05:41:09.331Z,2.00
2019-03-05T05:43:40.725Z,2.27
2019-03-05T05:46:12.097Z,2.43
2019-03-05T05:48:43.283Z,2.03
2019-03-05T05:51:14.661Z,2.60
2019-03-05T05:53:46.107Z,2.37
2019-03-05T05:56:17.581Z,2.27
2019-03-05T05:58:48.855Z,2.53
2019-03-05T06:01:20.414Z,2.27
2019-03-05T06:03:52.029Z,2.00
2019-03-05T06:06:24.987Z,2.40
2019-03-05T06:08:56.221Z,3.00
2019-03-05T06:11:28.875Z,2.37
2019-03-05T06:14:00.402Z,2.43
2019-03-05T06:16:31.784Z,2.70
2019-03-05T06:19:03.887Z,3.20
2019-03-05T06:21:35.271Z,2.90
2019-03-05T06:24:06.509Z,2.60
2019-03-05T06:26:38.178Z,3.33
2019-03-05T06:29:09.491Z,3.87
2019-03-05T06:31:40.871Z,3.50
2019-03-05T06:34:12.250Z,3.97
2019-03-05T06:37:17.985Z,3.90
2019-03-05T06:39:49.369Z,4.00
2019-03-05T06:42:20.807Z,3.90
2019-03-05T06:44:52.585Z,4.13
2019-03-05T06:47:23.998Z,4.43
2019-03-05T06:49:55.159Z,3.60
2019-03-05T06:52:26.592Z,3.27
2019-03-05T06:54:57.811Z,3.33
2019-03-05T06:57:29.197Z,3.73
2019-03-05T07:00:00.613Z,4.00
2019-03-05T07:02:32.195Z,3.40
2019-03-05T07:05:03.381Z,2.60
2019-03-05T07:07:35.276Z,2.20
2019-03-05T07:10:38.457Z,2.40
2019-03-05T07:13:18.797Z,2.17
2019-03-05T07:16:28.375Z,2.40
2019-03-05T07:19:15.850Z,2.37
2019-03-05T07:22:20.689Z,2.30
2019-03-05T07:25:11.067Z,1.90
2019-03-05T07:27:46.313Z,2.10
2019-03-05T07:30:22.652Z,1.80
2019-03-05T07:32:54.540Z,1.87
2019-03-05T07:35:30.479Z,2.30
2019-03-05T07:38:01.865Z,2.37
2019-03-05T07:40:33.198Z,2.40
2019-03-05T07:43:04.396Z,2.30
2019-03-05T07:45:35.890Z,1.87
2019-03-05T07:48:07.453Z,1.80
2019-03-05T07:50:38.801Z,2.17
2019-03-05T07:53:10.065Z,2.17
2019-03-05T07:55:41.497Z,2.47
2019-03-05T07:58:12.789Z,1.90
2019-03-05T08:00:44.502Z,1.87
2019-03-05T08:03:16.801Z,2.27
2019-03-05T08:05:48.127Z,1.60
2019-03-05T08:08:54.793Z,1.80
2019-03-05T08:11:26.247Z,2.00
2019-03-05T08:14:34.345Z,2.13
2019-03-05T08:17:05.711Z,1.63
2019-03-05T08:19:37.011Z,1.90
2019-03-05T08:22:09.159Z,1.90
2019-03-05T08:24:40.307Z,1.97
2019-03-05T08:27:12.124Z,1.77
2019-03-05T08:29:43.216Z,1.80
2019-03-05T08:32:14.841Z,2.07
2019-03-05T08:34:45.959Z,1.80
2019-03-05T08:37:17.633Z,1.70
2019-03-05T08:39:50.233Z,1.90
2019-03-05T08:42:21.676Z,1.53
2019-03-05T08:44:53.231Z,1.90
2019-03-05T08:47:24.975Z,1.67
2019-03-05T08:49:56.324Z,1.60
2019-03-05T08:52:27.984Z,1.53
2019-03-05T08:54:59.270Z,1.50
2019-03-05T08:57:30.618Z,1.67
2019-03-05T09:00:02.222Z,1.47
2019-03-05T09:02:34.113Z,2.10
2019-03-05T09:05:07.208Z,1.67
2019-03-05T09:07:38.751Z,1.57
2019-03-05T09:10:14.035Z,1.97
2019-03-05T09:12:45.736Z,1.60
2019-03-05T09:15:17.858Z,1.43
2019-03-05T09:17:50.183Z,1.57
2019-03-05T09:20:21.336Z,1.40
2019-03-05T09:22:52.855Z,2.10
2019-03-05T09:25:24.034Z,1.60
2019-03-05T09:27:55.476Z,1.77
2019-03-05T09:30:26.919Z,1.40
2019-03-05T09:32:58.491Z,1.70
2019-03-05T09:35:29.867Z,1.37
2019-03-05T09:38:01.619Z,1.43
2019-03-05T09:40:33.273Z,1.53
2019-03-05T09:43:04.818Z,1.53
2019-03-05T09:45:36.376Z,1.53
2019-03-05T09:48:08.227Z,1.40
2019-03-05T09:50:39.468Z,1.63
2019-03-05T09:53:12.247Z,1.60
2019-03-05T09:55:44.513Z,1.37
2019-03-05T09:58:15.883Z,1.40
2019-03-05T10:00:47.069Z,1.50
2019-03-05T10:03:18.630Z,1.50
2019-03-05T10:05:50.034Z,1.80
2019-03-05T10:08:31.621Z,1.10
2019-03-05T10:10:55.672Z,1.30
2019-03-05T10:13:27.039Z,1.30
2019-03-05T10:15:58.238Z,1.67
2019-03-05T10:18:29.943Z,1.50
2019-03-05T10:21:01.034Z,1.47
2019-03-05T10:23:32.565Z,1.60
2019-03-05T10:26:04.081Z,1.60
2019-03-05T10:28:35.867Z,1.33
2019-03-05T10:31:07.986Z,1.20
2019-03-05T10:33:39.297Z,1.40
2019-03-05T10:36:10.451Z,1.50
2019-03-05T10:38:41.629Z,1.63
2019-03-05T10:41:13.198Z,1.57
2019-03-05T10:43:44.781Z,1.43
2019-03-05T10:46:16.414Z,1.40
2019-03-05T10:48:48.804Z,1.73
2019-03-05T10:51:19.945Z,1.27
2019-03-05T10:53:51.302Z,1.50
2019-03-05T10:56:23.019Z,1.37
2019-03-05T10:58:54.624Z,1.30
2019-03-05T11:01:26.105Z,1.57
2019-03-05T11:03:57.933Z,1.30
2019-03-05T11:06:29.710Z,1.13
2019-03-05T11:09:01.494Z,1.77
2019-03-05T11:11:34.424Z,1.50
2019-03-05T11:14:06.580Z,1.40
2019-03-05T11:16:39.023Z,1.47
2019-03-05T11:19:10.693Z,1.23
2019-03-05T11:21:41.925Z,1.20
2019-03-05T11:24:26.623Z,1.57
2019-03-05T11:26:57.935Z,1.30
2019-03-05T11:29:29.847Z,1.23
2019-03-05T11:32:01.531Z,1.30
2019-03-05T11:34:33.279Z,1.27
2019-03-05T11:37:04.624Z,1.10
2019-03-05T11:39:36.837Z,1.20
2019-03-05T11:42:08.241Z,1.07
2019-03-05T11:44:40.023Z,1.20
2019-03-05T11:47:11.390Z,1.90
2019-03-05T11:49:42.915Z,1.87
2019-03-05T11:52:14.307Z,1.40
2019-03-05T11:54:45.922Z,1.20
2019-03-05T11:57:17.110Z,1.47
2019-03-05T11:59:50.152Z,1.70
2019-03-05T12:02:21.983Z,1.70
2019-03-05T12:04:54.041Z,1.80
2019-03-05T12:07:26.567Z,1.60
2019-03-05T12:09:57.821Z,1.50
2019-03-05T12:12:29.469Z,1.60
2019-03-05T12:15:01.010Z,1.40
2019-03-05T12:17:32.206Z,1.40
2019-03-05T12:20:03.512Z,1.43
2019-03-05T12:22:34.643Z,1.47
2019-03-05T12:25:08.060Z,1.53
2019-03-05T12:27:39.330Z,1.43
2019-03-05T12:30:30.256Z,1.10
2019-03-05T12:33:01.429Z,1.40
2019-03-05T12:35:35.352Z,1.93
2019-03-05T12:38:06.253Z,2.00
2019-03-05T12:40:37.857Z,1.53
2019-03-05T12:43:09.117Z,1.40
2019-03-05T12:45:40.461Z,1.40
2019-03-05T12:48:11.828Z,1.30
2019-03-05T12:50:43.047Z,1.23
2019-03-05T12:53:16.053Z,1.50
2019-03-05T12:55:47.725Z,1.50
2019-03-05T12:58:19.000Z,1.63
2019-03-05T13:00:50.425Z,1.73
2019-03-05T13:03:22.021Z,1.60
2019-03-05T13:05:53.394Z,1.57
2019-03-05T13:08:24.499Z,1.20
2019-03-05T13:10:55.986Z,1.17
2019-03-05T13:13:27.347Z,1.40
2019-03-05T13:15:59.181Z,1.40
2019-03-05T13:18:30.975Z,1.30
2019-03-05T13:21:07.569Z,1.80
2019-03-05T13:23:36.683Z,2.23
2019-03-05T13:26:09.215Z,1.40
2019-03-05T13:28:41.655Z,1.40
2019-03-05T13:31:13.436Z,1.73
2019-03-05T13:33:44.594Z,1.40
2019-03-05T13:36:16.777Z,1.30
2019-03-05T13:38:48.289Z,1.30
2019-03-05T13:41:19.767Z,1.10
2019-03-05T13:43:52.160Z,1.57
2019-03-05T13:46:25.895Z,1.27
2019-03-05T13:49:57.499Z,1.20
2019-03-05T13:52:40.364Z,1.40
2019-03-05T13:55:28.120Z,1.40
2019-03-05T13:58:10.703Z,1.20
2019-03-05T14:00:41.782Z,1.20
2019-03-05T14:03:18.182Z,1.30
2019-03-05T14:06:34.483Z,1.40
2019-03-05T14:09:31.226Z,1.20
2019-03-05T14:12:02.323Z,1.40
2019-03-05T14:14:33.722Z,1.40
2019-03-05T14:17:19.511Z,1.23
2019-03-05T14:19:51.492Z,1.70
2019-03-05T14:22:22.630Z,1.40
2019-03-05T14:25:02.164Z,1.17
2019-03-05T14:27:26.820Z,1.20
2019-03-05T14:29:58.367Z,1.40
2019-03-05T14:32:30.187Z,1.10
2019-03-05T14:35:08.729Z,1.30
2019-03-05T14:37:40.089Z,1.50
2019-03-05T14:40:24.172Z,1.20
2019-03-05T14:42:47.889Z,1.40
2019-03-05T14:45:21.942Z,1.40
2019-03-05T14:47:55.311Z,1.33
2019-03-05T14:50:26.655Z,1.20
2019-03-05T14:52:57.803Z,1.40
2019-03-05T14:55:29.438Z,1.83
2019-03-05T14:58:00.698Z,1.43
2019-03-05T15:00:32.462Z,1.43
2019-03-05T15:03:03.637Z,1.20
2019-03-05T15:05:35.238Z,1.40
2019-03-05T15:08:06.756Z,1.10
2019-03-05T15:10:41.237Z,1.70
2019-03-05T15:13:17.356Z,1.53
2019-03-05T15:15:45.645Z,1.93
2019-03-05T15:18:17.130Z,1.70
2019-03-05T15:20:48.557Z,1.50
2019-03-05T15:23:19.862Z,1.50
2019-03-05T15:25:52.500Z,1.30
2019-03-05T15:28:23.903Z,1.50
2019-03-05T15:30:55.305Z,1.20
2019-03-05T15:33:26.469Z,1.40
2019-03-05T15:35:57.884Z,1.40
2019-03-05T15:38:28.938Z,1.20
2019-03-05T15:41:00.573Z,1.30
2019-03-05T15:43:31.908Z,1.20
2019-03-05T15:46:03.373Z,1.30
2019-03-05T15:48:35.446Z,1.43
2019-03-05T15:51:06.850Z,1.77
2019-03-05T15:53:38.458Z,1.10
2019-03-05T15:56:09.799Z,1.30
2019-03-05T15:58:40.903Z,1.20
2019-03-05T16:01:18.847Z,1.37
2019-03-05T16:03:45.115Z,1.33
2019-03-05T16:06:16.423Z,1.43
2019-03-05T16:08:47.877Z,1.40
2019-03-05T16:11:19.640Z,1.20
2019-03-05T16:13:52.382Z,1.20
2019-03-05T16:16:24.910Z,1.20
2019-03-05T16:18:56.158Z,1.37
2019-03-05T16:21:27.695Z,1.33
2019-03-05T16:24:01.790Z,1.47
2019-03-05T16:26:42.832Z,1.30
2019-03-05T16:29:16.281Z,1.40
2019-03-05T16:32:02.388Z,1.20
2019-03-05T16:34:55.739Z,1.97
2019-03-05T16:37:58.325Z,1.30
2019-03-05T16:40:47.776Z,1.40
2019-03-05T16:43:45.267Z,1.50
2019-03-05T16:46:38.319Z,1.20
2019-03-05T16:49:25.980Z,1.50
2019-03-05T16:52:11.570Z,1.20
2019-03-05T16:55:01.927Z,1.27
2019-03-05T16:58:02.968Z,1.43
2019-03-05T17:00:49.170Z,1.33
2019-03-05T17:03:45.668Z,1.50
2019-03-05T17:06:48.505Z,1.50
2019-03-05T17:09:37.275Z,1.50
2019-03-05T17:12:09.046Z,1.73
2019-03-05T17:14:40.616Z,1.40
2019-03-05T17:17:32.699Z,1.20
2019-03-05T17:20:15.209Z,1.50
2019-03-05T17:22:46.991Z,1.60
2019-03-05T17:25:18.545Z,1.30
2019-03-05T17:27:50.071Z,1.60
2019-03-05T17:30:21.287Z,1.20
2019-03-05T17:32:53.213Z,1.30
2019-03-05T17:35:24.537Z,1.70
2019-03-05T17:37:56.419Z,1.33
2019-03-05T17:40:27.867Z,1.43
2019-03-05T17:42:59.630Z,1.60
2019-03-05T17:45:31.031Z,1.70
2019-03-05T17:48:02.529Z,1.60
2019-03-05T17:50:33.742Z,1.70
2019-03-05T17:53:04.970Z,1.40
2019-03-05T17:55:36.369Z,1.50
2019-03-05T17:58:07.835Z,1.80
2019-03-05T18:00:39.849Z,1.30
2019-03-05T18:03:11.546Z,1.77
2019-03-05T18:05:42.720Z,1.67
2019-03-05T18:08:14.135Z,1.40
2019-03-05T18:10:45.276Z,1.70
2019-03-05T18:13:16.579Z,1.60
2019-03-05T18:15:48.847Z,2.07
2019-03-05T18:18:20.378Z,1.97
2019-03-05T18:20:52.130Z,2.13
2019-03-05T18:23:23.521Z,2.10
2019-03-05T18:25:54.683Z,1.63
2019-03-05T18:28:26.297Z,1.67
2019-03-05T18:30:57.454Z,2.17
2019-03-05T18:33:28.781Z,1.50
2019-03-05T18:35:59.892Z,1.80
2019-03-05T18:38:31.387Z,1.73
2019-03-05T18:41:02.451Z,1.60
2019-03-05T18:43:33.851Z,1.90
2019-03-05T18:46:05.539Z,1.80
2019-03-05T18:48:36.967Z,1.70
2019-03-05T18:51:08.054Z,1.90
2019-03-05T18:53:39.219Z,1.60
2019-03-05T18:56:10.259Z,1.80
2019-03-05T18:58:41.743Z,1.93
2019-03-05T19:01:12.873Z,1.60
2019-03-05T19:03:44.339Z,2.07
2019-03-05T19:06:15.443Z,1.80
2019-03-05T19:08:59.411Z,1.70
2019-03-05T19:11:30.635Z,1.70
2019-03-05T19:14:01.888Z,2.07
2019-03-05T19:16:33.088Z,1.57
2019-03-05T19:19:04.264Z,1.87
2019-03-05T19:21:35.449Z,1.70
2019-03-05T19:24:06.816Z,1.70
2019-03-05T19:26:37.870Z,1.90
2019-03-05T19:29:09.063Z,1.90
2019-03-05T19:31:40.172Z,1.70
2019-03-05T19:34:11.499Z,1.83
2019-03-05T19:36:42.697Z,2.20
2019-03-05T19:39:14.815Z,1.97
2019-03-05T19:41:55.631Z,2.37
2019-03-05T19:44:19.587Z,2.07
2019-03-05T19:46:51.719Z,2.40
2019-03-05T19:49:23.482Z,2.40
2019-03-05T19:51:54.641Z,2.80
2019-03-05T19:54:25.990Z,2.97
2019-03-05T19:56:57.057Z,2.27
2019-03-05T19:59:30.023Z,1.90
2019-03-05T20:02:01.434Z,2.33
2019-03-05T20:04:33.217Z,1.90
2019-03-05T20:07:04.295Z,2.10
2019-03-05T20:09:35.610Z,2.43
2019-03-05T20:12:07.151Z,2.00
2019-03-05T20:14:38.513Z,1.77
2019-03-05T20:17:09.710Z,2.30
2019-03-05T20:19:41.109Z,2.20
2019-03-05T20:22:12.195Z,2.60
2019-03-05T20:24:43.722Z,2.63
2019-03-05T20:27:16.275Z,2.33
2019-03-05T20:29:48.888Z,3.80
2019-03-05T20:32:20.306Z,2.70
2019-03-05T20:34:52.194Z,2.17
2019-03-05T20:37:23.437Z,1.67
2019-03-05T20:39:54.882Z,1.90
2019-03-05T20:42:26.209Z,2.10
2019-03-05T20:44:58.193Z,1.90
2019-03-05T20:47:29.356Z,2.10
2019-03-05T20:50:01.240Z,1.87
2019-03-05T20:52:32.703Z,1.90
2019-03-05T20:55:04.640Z,1.90
2019-03-05T20:57:35.802Z,1.60
2019-03-05T21:00:17.651Z,1.77
2019-03-05T21:02:48.908Z,2.10
2019-03-05T21:05:20.632Z,2.20
2019-03-05T21:07:51.805Z,1.80
2019-03-05T21:10:23.065Z,1.90
2019-03-05T21:12:54.248Z,1.73
2019-03-05T21:15:26.164Z,1.80
2019-03-05T21:17:57.268Z,1.83
2019-03-05T21:20:28.561Z,2.07
2019-03-05T21:22:59.649Z,2.10
2019-03-05T21:25:31.149Z,2.23
2019-03-05T21:28:02.352Z,1.93
2019-03-05T21:30:33.766Z,1.53
2019-03-05T21:33:04.957Z,2.20
2019-03-05T21:35:55.617Z,2.10
2019-03-05T21:38:26.731Z,1.70
2019-03-05T21:40:57.992Z,1.80
2019-03-05T21:43:30.371Z,1.90
2019-03-05T21:46:04.684Z,1.90
2019-03-05T21:48:35.795Z,1.90
2019-03-05T21:51:07.323Z,2.17
2019-03-05T21:53:38.424Z,2.10
2019-03-05T21:56:09.674Z,2.20
2019-03-05T21:58:40.897Z,2.20
2019-03-05T22:01:12.302Z,1.90
2019-03-05T22:03:43.527Z,1.97
2019-03-05T22:06:15.267Z,2.27
2019-03-05T22:08:46.586Z,2.33
2019-03-05T22:11:17.897Z,2.90
2019-03-05T22:13:49.084Z,2.53
2019-03-05T22:16:20.587Z,2.60
2019-03-05T22:18:51.837Z,1.93
2019-03-05T22:21:22.991Z,2.10
2019-03-05T22:23:56.347Z,2.10
2019-03-05T22:26:27.778Z,2.10
2019-03-05T22:28:58.987Z,1.80
2019-03-05T22:31:30.524Z,2.30
2019-03-05T22:34:01.676Z,1.73
2019-03-05T22:36:33.509Z,2.30
2019-03-05T22:39:07.243Z,2.13
2019-03-05T22:41:40.383Z,2.17
2019-03-05T22:44:11.607Z,2.17
2019-03-05T22:46:43.556Z,2.27
2019-03-05T22:49:14.773Z,2.30
2019-03-05T22:51:46.091Z,2.40
2019-03-05T22:54:17.289Z,2.40
2019-03-05T22:56:48.625Z,3.20
2019-03-05T22:59:19.757Z,2.67
2019-03-05T23:01:51.107Z,2.30
2019-03-05T23:04:33.243Z,2.20
2019-03-05T23:07:05.281Z,2.20
2019-03-05T23:09:36.973Z,2.43
2019-03-05T23:12:08.897Z,2.13
2019-03-05T23:14:40.147Z,2.10
2019-03-05T23:17:13.343Z,2.50
2019-03-05T23:19:44.510Z,2.40
2019-03-05T23:22:15.958Z,2.40
2019-03-05T23:24:47.191Z,2.50
2019-03-05T23:27:19.044Z,3.20
2019-03-05T23:29:50.184Z,2.47
2019-03-05T23:32:21.655Z,2.30
2019-03-05T23:34:53.355Z,2.30
2019-03-05T23:37:24.749Z,2.70
2019-03-05T23:39:55.915Z,2.70
2019-03-05T23:42:27.256Z,2.60
2019-03-05T23:44:58.358Z,2.10
2019-03-05T23:47:29.631Z,2.33
2019-03-05T23:50:11.983Z,2.60
2019-03-05T23:52:43.395Z,2.80
2019-03-05T23:55:15.243Z,2.53
2019-03-05T23:57:46.808Z,2.40
